Time;durP1;ratioP1;P1;durP2;ratioP2;P2;SDS_P1;SDS_P2;PMS_P1;PMS_P2;Temp;Humidity;BMP_temperature;BMP_pressure;BME280_temperature;BME280_humidity;BME280_pressure;Samples;Min_cycle;Max_cycle;Signal;HPM_P1;HPM_P2
2022/12/28 00:00:01;;;;;;;;;;;;;;;;;;5077173;28;20300;-67
2022/12/28 00:02:27;;;;;;;;;;;;;;;;;;5076516;28;20317;-67
2022/12/28 00:04:53;;;;;;;;;;;;;;;;;;5076882;28;19963;-67
2022/12/28 00:07:19;;;;;;;;;;;;;;;;;;5058920;28;19909;-68
2022/12/28 00:09:45;;;;;;;;;;;;;;;;;;5076328;28;19966;-66
2022/12/28 00:12:11;;;;;;;;;;;;;;;;;;5058867;28;19916;-67
2022/12/28 00:14:37;;;;;;;;;;;;;;;;;;5077030;28;19991;-68
2022/12/28 00:17:03;;;;;;;;;;;;;;;;;;5076302;28;19962;-67
2022/12/28 00:19:29;;;;;;;;;;;;;;;;;;5077018;28;19912;-67
2022/12/28 00:21:55;;;;;;;;;;;;;;;;;;5076559;28;19908;-67
2022/12/28 00:24:21;;;;;;;;;;;;;;;;;;5076154;28;19915;-66
2022/12/28 00:26:47;;;;;;;;;;;;;;;;;;5076534;28;19908;-67
2022/12/28 00:29:13;;;;;;;;;;;;;;;;;;5076511;28;19909;-67
2022/12/28 00:31:39;;;;;;;;;;;;;;;;;;5075954;28;20391;-67
2022/12/28 00:34:05;;;;;;;;;;;;;;;;;;5076377;28;19909;-67
2022/12/28 00:36:31;;;;;;;;;;;;;;;;;;5075899;28;19922;-66
2022/12/28 00:38:56;;;;;;;;;;;;;;;;;;5076267;28;19931;-67
2022/12/28 00:41:22;;;;;;;;;;;;;;;;;;5058281;28;20264;-66
2022/12/28 00:43:48;;;;;;;;;;;;;;;;;;5075336;28;20003;-67
2022/12/28 00:46:14;;;;;;;;;;;;;;;;;;5076130;28;19978;-67
2022/12/28 00:48:40;;;;;;;;;;;;;;;;;;5076217;28;19909;-67
2022/12/28 00:51:06;;;;;;;;;;;;;;;;;;5075746;28;20403;-67
2022/12/28 00:53:32;;;;;;;;;;;;;;;;;;5076052;28;20495;-67
2022/12/28 00:55:58;;;;;;;;;;;;;;;;;;5076000;28;19912;-67
2022/12/28 00:58:24;;;;;;;;;;;;;;;;;;5075681;28;19909;-67
2022/12/28 01:00:50;;;;;;;;;;;;;;;;;;5075879;28;19934;-67
2022/12/28 01:03:16;;;;;;;;;;;;;;;;;;5075832;28;19951;-67
2022/12/28 01:05:42;;;;;;;;;;;;;;;;;;5075400;28;19951;-67
2022/12/28 01:08:08;;;;;;;;;;;;;;;;;;5075967;28;19912;-67
2022/12/28 01:10:34;;;;;;;;;;;;;;;;;;5075454;28;19920;-67
2022/12/28 01:13:00;;;;;;;;;;;;;;;;;;5075230;28;19915;-67
2022/12/28 01:15:26;;;;;;;;;;;;;;;;;;5075643;28;19915;-67
2022/12/28 01:17:52;;;;;;;;;;;;;;;;;;5075477;28;20341;-66
2022/12/28 01:20:18;;;;;;;;;;;;;;;;;;5075249;28;19958;-66
2022/12/28 01:22:44;;;;;;;;;;;;;;;;;;5075498;28;20011;-66
2022/12/28 01:25:11;;;;;;;;;;;;;;;;;;5075419;28;19908;-66
2022/12/28 01:27:37;;;;;;;;;;;;;;;;;;5074948;28;20021;-67
2022/12/28 01:30:04;;;;;;;;;;;;;;;;;;5075273;28;20015;-67
2022/12/28 01:32:30;;;;;;;;;;;;;;;;;;5075372;28;20319;-67
2022/12/28 01:34:56;;;;;;;;;;;;;;;;;;5074890;28;19950;-67
2022/12/28 01:37:21;;;;;;;;;;;;;;;;;;5057209;28;19912;-67
2022/12/28 01:39:47;;;;;;;;;;;;;;;;;;5074735;28;19909;-66
2022/12/28 01:42:13;;;;;;;;;;;;;;;;;;5075066;28;19999;-67
2022/12/28 01:44:39;;;;;;;;;;;;;;;;;;5075181;28;19908;-67
2022/12/28 01:47:05;;;;;;;;;;;;;;;;;;5074529;28;19909;-67
2022/12/28 01:49:31;;;;;;;;;;;;;;;;;;5074943;28;20364;-67
2022/12/28 01:51:57;;;;;;;;;;;;;;;;;;5074775;28;20391;-67
2022/12/28 01:54:23;;;;;;;;;;;;;;;;;;5073599;28;19931;-67
2022/12/28 01:56:49;;;;;;;;;;;;;;;;;;5056841;28;19908;-67
2022/12/28 01:59:15;;;;;;;;;;;;;;;;;;5074756;28;19908;-67
2022/12/28 02:01:41;;;;;;;;;;;;;;;;;;5074287;28;19909;-67
2022/12/28 02:04:07;;;;;;;;;;;;;;;;;;5074608;28;19909;-67
2022/12/28 02:06:33;;;;;;;;;;;;;;;;;;5074627;28;19996;-67
2022/12/28 02:08:59;;;;;;;;;;;;;;;;;;5056164;28;19916;-67
2022/12/28 02:11:24;;;;;;;;;;;;;;;;;;5074250;28;19920;-67
2022/12/28 02:13:50;;;;;;;;;;;;;;;;;;5056631;28;19923;-67
2022/12/28 02:16:16;;;;;;;;;;;;;;;;;;5073963;28;19909;-67
2022/12/28 02:18:42;;;;;;;;;;;;;;;;;;5074331;28;19909;-66
2022/12/28 02:21:08;;;;;;;;;;;;;;;;;;5074534;28;19920;-66
2022/12/28 02:23:34;;;;;;;;;;;;;;;;;;5073893;28;19913;-67
2022/12/28 02:26:00;;;;;;;;;;;;;;;;;;5074228;28;19908;-66
2022/12/28 02:28:26;;;;;;;;;;;;;;;;;;5074621;28;19955;-66
2022/12/28 02:30:52;;;;;;;;;;;;;;;;;;5073682;28;19916;-67
2022/12/28 02:33:18;;;;;;;;;;;;;;;;;;5074096;28;19913;-67
2022/12/28 02:35:44;;;;;;;;;;;;;;;;;;5074225;28;19916;-67
2022/12/28 02:38:10;;;;;;;;;;;;;;;;;;5073743;28;19909;-66
2022/12/28 02:40:36;;;;;;;;;;;;;;;;;;5074133;28;19917;-67
2022/12/28 02:43:02;;;;;;;;;;;;;;;;;;5073637;28;19984;-67
2022/12/28 02:50:57;;;;;;;;;;;;;;;;;;5073632;28;19922;-67
2022/12/28 02:53:23;;;;;;;;;;;;;;;;;;5073867;28;19908;-66
2022/12/28 02:56:07;;;;;;;;;;;;;;;;;;5055865;28;19967;-67
2022/12/28 02:58:33;;;;;;;;;;;;;;;;;;5073423;28;20030;-67
2022/12/28 03:00:59;;;;;;;;;;;;;;;;;;5073756;28;19952;-67
2022/12/28 03:03:25;;;;;;;;;;;;;;;;;;5055765;28;19912;-67
2022/12/28 03:08:35;;;;;;;;;;;;;;;;;;5073807;28;19915;-67
2022/12/28 03:11:01;;;;;;;;;;;;;;;;;;5055059;28;19924;-67
2022/12/28 03:13:42;;;;;;;;;;;;;;;;;;5073664;28;19915;-66
2022/12/28 03:16:08;;;;;;;;;;;;;;;;;;5073668;28;19950;-67
2022/12/28 03:32:18;;;;;;;;;;;;;;;;;;5073144;28;20012;-67
2022/12/28 03:34:43;;;;;;;;;;;;;;;;;;5073523;28;20345;-67
2022/12/28 03:37:09;;;;;;;;;;;;;;;;;;5073406;28;19908;-67
2022/12/28 03:39:35;;;;;;;;;;;;;;;;;;5073011;28;19909;-66
2022/12/28 03:44:46;;;;;;;;;;;;;;;;;;5073412;28;19919;-66
2022/12/28 03:47:12;;;;;;;;;;;;;;;;;;5073046;28;19908;-67
2022/12/28 03:49:38;;;;;;;;;;;;;;;;;;5073331;28;19920;-67
2022/12/28 03:52:04;;;;;;;;;;;;;;;;;;5055126;28;19962;-67
2022/12/28 03:54:30;;;;;;;;;;;;;;;;;;5072893;28;19915;-67
2022/12/28 03:56:55;;;;;;;;;;;;;;;;;;5073158;28;19915;-67
2022/12/28 03:59:21;;;;;;;;;;;;;;;;;;5073479;28;19909;-67
2022/12/28 04:01:47;;;;;;;;;;;;;;;;;;5054864;28;19951;-67
2022/12/28 04:04:13;;;;;;;;;;;;;;;;;;5073202;28;19915;-67
2022/12/28 04:06:39;;;;;;;;;;;;;;;;;;5073124;28;19909;-67
2022/12/28 04:09:05;;;;;;;;;;;;;;;;;;5072814;28;19909;-66
2022/12/28 04:11:31;;;;;;;;;;;;;;;;;;5072837;28;20273;-67
2022/12/28 04:13:57;;;;;;;;;;;;;;;;;;5073143;28;19908;-66
2022/12/28 04:16:23;;;;;;;;;;;;;;;;;;5054549;28;19915;-66
2022/12/28 04:18:49;;;;;;;;;;;;;;;;;;5075507;28;19909;-66
2022/12/28 04:21:15;;;;;;;;;;;;;;;;;;5076773;28;19908;-66
2022/12/28 04:23:41;;;;;;;;;;;;;;;;;;5076173;28;20284;-66
2022/12/28 04:26:07;;;;;;;;;;;;;;;;;;5076835;28;19954;-66
2022/12/28 04:28:33;;;;;;;;;;;;;;;;;;5076036;28;19908;-66
2022/12/28 04:30:59;;;;;;;;;;;;;;;;;;5076342;28;19917;-67
2022/12/28 04:33:25;;;;;;;;;;;;;;;;;;5076573;28;20050;-67
2022/12/28 04:35:51;;;;;;;;;;;;;;;;;;5075965;28;20365;-67
2022/12/28 04:38:17;;;;;;;;;;;;;;;;;;5058326;28;19953;-67
2022/12/28 04:40:43;;;;;;;;;;;;;;;;;;5076571;28;19908;-67
2022/12/28 04:43:08;;;;;;;;;;;;;;;;;;5075759;28;19912;-66
2022/12/28 04:45:34;;;;;;;;;;;;;;;;;;5076339;28;19912;-67
2022/12/28 04:48:00;;;;;;;;;;;;;;;;;;5076119;28;19909;-66
2022/12/28 04:50:26;;;;;;;;;;;;;;;;;;5075835;28;20009;-67
2022/12/28 04:52:53;;;;;;;;;;;;;;;;;;5076052;28;19913;-66
2022/12/28 04:55:19;;;;;;;;;;;;;;;;;;5076043;28;19944;-67
2022/12/28 04:57:45;;;;;;;;;;;;;;;;;;5075573;28;19909;-67
2022/12/28 05:00:11;;;;;;;;;;;;;;;;;;5076088;28;19909;-67
2022/12/28 05:02:37;;;;;;;;;;;;;;;;;;5075832;28;19909;-67
2022/12/28 05:05:03;;;;;;;;;;;;;;;;;;5075599;28;19915;-66
2022/12/28 05:07:28;;;;;;;;;;;;;;;;;;5075811;28;19913;-67
2022/12/28 05:09:54;;;;;;;;;;;;;;;;;;5075483;28;19909;-67
2022/12/28 05:12:20;;;;;;;;;;;;;;;;;;5075386;28;19978;-67
2022/12/28 05:14:46;;;;;;;;;;;;;;;;;;5075852;28;19909;-67
2022/12/28 05:17:12;;;;;;;;;;;;;;;;;;5075597;28;19978;-67
2022/12/28 05:19:38;;;;;;;;;;;;;;;;;;5057201;28;19912;-67
2022/12/28 05:22:04;;;;;;;;;;;;;;;;;;5075480;28;19916;-66
2022/12/28 05:24:30;;;;;;;;;;;;;;;;;;5075489;28;19908;-66
2022/12/28 05:26:56;;;;;;;;;;;;;;;;;;5074943;28;20000;-67
2022/12/28 05:29:22;;;;;;;;;;;;;;;;;;5075839;28;20328;-67
2022/12/28 05:31:48;;;;;;;;;;;;;;;;;;5074708;28;19920;-67
2022/12/28 05:34:14;;;;;;;;;;;;;;;;;;5075166;28;19909;-67
2022/12/28 05:36:40;;;;;;;;;;;;;;;;;;5057179;28;20313;-66
2022/12/28 05:39:07;;;;;;;;;;;;;;;;;;5074759;28;19951;-66
2022/12/28 05:41:33;;;;;;;;;;;;;;;;;;5075092;28;19908;-68
2022/12/28 05:43:59;;;;;;;;;;;;;;;;;;5057072;28;20281;-66
2022/12/28 05:46:24;;;;;;;;;;;;;;;;;;5074601;28;20379;-67
2022/12/28 05:48:50;;;;;;;;;;;;;;;;;;5074604;28;19931;-67
2022/12/28 05:51:16;;;;;;;;;;;;;;;;;;5073505;28;19916;-67
2022/12/28 05:53:42;;;;;;;;;;;;;;;;;;5072596;28;19916;-67
2022/12/28 05:56:08;;;;;;;;;;;;;;;;;;5072783;28;19982;-67
2022/12/28 05:58:34;;;;;;;;;;;;;;;;;;5072684;28;19916;-67
2022/12/28 06:01:00;;;;;;;;;;;;;;;;;;5072464;28;19909;-67
2022/12/28 06:03:26;;;;;;;;;;;;;;;;;;5072848;28;19908;-67
2022/12/28 06:05:52;;;;;;;;;;;;;;;;;;5072424;28;19954;-67
2022/12/28 06:08:18;;;;;;;;;;;;;;;;;;5073505;28;19912;-66
2022/12/28 06:10:44;;;;;;;;;;;;;;;;;;5074227;28;19920;-67
2022/12/28 06:13:10;;;;;;;;;;;;;;;;;;5074458;28;19934;-66
2022/12/28 06:15:36;;;;;;;;;;;;;;;;;;5074059;28;19944;-67
2022/12/28 06:18:02;;;;;;;;;;;;;;;;;;5074276;28;19909;-67
2022/12/28 06:20:28;;;;;;;;;;;;;;;;;;5074254;28;20261;-66
2022/12/28 06:22:53;;;;;;;;;;;;;;;;;;5073469;28;20253;-66
2022/12/28 06:25:19;;;;;;;;;;;;;;;;;;5073777;28;20284;-67
2022/12/28 06:27:46;;;;;;;;;;;;;;;;;;5073856;28;20340;-66
2022/12/28 06:30:11;;;;;;;;;;;;;;;;;;5073478;28;19932;-67
2022/12/28 06:32:37;;;;;;;;;;;;;;;;;;5078436;28;20430;-67
2022/12/28 06:35:03;;;;;;;;;;;;;;;;;;5091076;28;19974;-69
2022/12/28 06:37:29;;;;;;;;;;;;;;;;;;5078945;28;19912;-70
2022/12/28 06:39:55;;;;;;;;;;;;;;;;;;5092456;28;19916;-69
2022/12/28 06:42:21;;;;;;;;;;;;;;;;;;5090321;28;20677;-69
2022/12/28 06:44:47;;;;;;;;;;;;;;;;;;5092138;28;19992;-70
2022/12/28 06:47:13;;;;;;;;;;;;;;;;;;5092898;28;19908;-70
2022/12/28 06:49:39;;;;;;;;;;;;;;;;;;5091059;28;19970;-69
2022/12/28 06:52:05;;;;;;;;;;;;;;;;;;5091353;28;19923;-70
2022/12/28 06:54:31;;;;;;;;;;;;;;;;;;5091084;28;19920;-69
2022/12/28 06:59:48;;;;;;;;;;;;;;;;;;5087036;28;19981;-69
2022/12/28 07:02:19;;;;;;;;;;;;;;;;;;5072966;28;19912;-68
2022/12/28 07:04:46;;;;;;;;;;;;;;;;;;5092301;28;20383;-67
2022/12/28 07:07:15;;;;;;;;;;;;;;;;;;5078536;28;20313;-67
2022/12/28 07:09:41;;;;;;;;;;;;;;;;;;5092560;28;19908;-67
2022/12/28 07:12:07;;;;;;;;;;;;;;;;;;5091207;28;19958;-67
2022/12/28 07:14:34;;;;;;;;;;;;;;;;;;5092894;28;19915;-69
2022/12/28 07:17:00;;;;;;;;;;;;;;;;;;5092514;28;19915;-68
2022/12/28 07:19:25;;;;;;;;;;;;;;;;;;5090071;28;19908;-68
2022/12/28 07:21:52;;;;;;;;;;;;;;;;;;5085417;28;20014;-68
2022/12/28 07:24:19;;;;;;;;;;;;;;;;;;5092187;28;19987;-70
2022/12/28 07:26:45;;;;;;;;;;;;;;;;;;5092924;28;19954;-70
2022/12/28 07:29:11;;;;;;;;;;;;;;;;;;5092753;28;19909;-68
2022/12/28 07:31:37;;;;;;;;;;;;;;;;;;5073582;28;20035;-69
2022/12/28 07:34:03;;;;;;;;;;;;;;;;;;5085618;28;20007;-67
2022/12/28 07:36:29;;;;;;;;;;;;;;;;;;5092990;28;19908;-67
2022/12/28 07:38:55;;;;;;;;;;;;;;;;;;5091904;28;20439;-68
2022/12/28 07:41:21;;;;;;;;;;;;;;;;;;5092865;28;19954;-69
2022/12/28 07:43:47;;;;;;;;;;;;;;;;;;5092730;28;19915;-69
2022/12/28 07:46:13;;;;;;;;;;;;;;;;;;5092264;28;19912;-67
2022/12/28 07:48:39;;;;;;;;;;;;;;;;;;5092707;28;19991;-66
2022/12/28 07:51:05;;;;;;;;;;;;;;;;;;5092802;28;19923;-67
2022/12/28 07:53:31;;;;;;;;;;;;;;;;;;5094443;28;20388;-67
2022/12/28 07:55:57;;;;;;;;;;;;;;;;;;5096333;28;20006;-68
2022/12/28 07:58:23;;;;;;;;;;;;;;;;;;5096477;28;19915;-67
2022/12/28 08:00:49;;;;;;;;;;;;;;;;;;5077549;28;19915;-70
2022/12/28 08:03:15;;;;;;;;;;;;;;;;;;5095528;28;19909;-69
2022/12/28 08:05:41;;;;;;;;;;;;;;;;;;5075544;28;19908;-70
2022/12/28 08:08:07;;;;;;;;;;;;;;;;;;5094922;28;19954;-72
2022/12/28 08:10:33;;;;;;;;;;;;;;;;;;5095898;28;19924;-70
2022/12/28 08:12:59;;;;;;;;;;;;;;;;;;5096013;28;19915;-70
2022/12/28 08:15:25;;;;;;;;;;;;;;;;;;5076453;28;20015;-71
2022/12/28 08:17:51;;;;;;;;;;;;;;;;;;5095391;28;19908;-70
2022/12/28 08:20:17;;;;;;;;;;;;;;;;;;5096277;28;19908;-69
2022/12/28 08:22:43;;;;;;;;;;;;;;;;;;5094098;28;19908;-69
2022/12/28 08:25:09;;;;;;;;;;;;;;;;;;5096085;28;19994;-68
2022/12/28 08:27:35;;;;;;;;;;;;;;;;;;5070646;28;20361;-66
2022/12/28 08:30:01;;;;;;;;;;;;;;;;;;5095119;28;20360;-66
2022/12/28 08:32:27;;;;;;;;;;;;;;;;;;5095115;28;19916;-67
2022/12/28 08:34:53;;;;;;;;;;;;;;;;;;5094991;28;19946;-67
2022/12/28 08:37:19;;;;;;;;;;;;;;;;;;5077369;28;20380;-69
2022/12/28 08:39:46;;;;;;;;;;;;;;;;;;5077234;28;20041;-69
2022/12/28 08:42:12;;;;;;;;;;;;;;;;;;5077266;28;19960;-67
2022/12/28 08:44:39;;;;;;;;;;;;;;;;;;5077310;28;19916;-67
2022/12/28 08:47:05;;;;;;;;;;;;;;;;;;5087579;28;19916;-70
2022/12/28 08:49:31;;;;;;;;;;;;;;;;;;5095226;28;19912;-67
2022/12/28 08:51:59;;;;;;;;;;;;;;;;;;5095024;28;19920;-69
2022/12/28 08:54:25;;;;;;;;;;;;;;;;;;5077015;28;19919;-67
2022/12/28 08:56:54;;;;;;;;;;;;;;;;;;5094880;28;20360;-69
2022/12/28 08:59:28;;;;;;;;;;;;;;;;;;5095392;28;19912;-68
2022/12/28 09:02:03;;;;;;;;;;;;;;;;;;5095018;28;19908;-68
2022/12/28 09:04:30;;;;;;;;;;;;;;;;;;5094462;28;20614;-66
2022/12/28 09:07:00;;;;;;;;;;;;;;;;;;5094463;28;19961;-68
2022/12/28 09:09:28;;;;;;;;;;;;;;;;;;5092246;28;20002;-67
2022/12/28 09:11:57;;;;;;;;;;;;;;;;;;5091778;28;19924;-69
2022/12/28 09:14:23;;;;;;;;;;;;;;;;;;5076554;28;19904;-68
2022/12/28 09:16:50;;;;;;;;;;;;;;;;;;5093140;28;19908;-68
2022/12/28 09:19:16;;;;;;;;;;;;;;;;;;5094346;28;19912;-68
2022/12/28 09:21:44;;;;;;;;;;;;;;;;;;5093493;28;19935;-68
2022/12/28 09:24:10;;;;;;;;;;;;;;;;;;5074756;28;19908;-69
2022/12/28 09:26:37;;;;;;;;;;;;;;;;;;5094098;28;19961;-67
2022/12/28 09:29:03;;;;;;;;;;;;;;;;;;5093461;28;19951;-67
2022/12/28 09:31:29;;;;;;;;;;;;;;;;;;5072018;28;20372;-67
2022/12/28 09:33:58;;;;;;;;;;;;;;;;;;5093021;28;20273;-67
2022/12/28 09:36:27;;;;;;;;;;;;;;;;;;5089523;28;19916;-70
2022/12/28 09:39:03;;;;;;;;;;;;;;;;;;5086149;28;19908;-67
2022/12/28 09:41:32;;;;;;;;;;;;;;;;;;5090138;28;19961;-67
2022/12/28 09:43:58;;;;;;;;;;;;;;;;;;5074865;28;19965;-68
2022/12/28 09:46:25;;;;;;;;;;;;;;;;;;5093584;28;19939;-68
2022/12/28 09:48:51;;;;;;;;;;;;;;;;;;5093170;28;19948;-68
2022/12/28 09:51:17;;;;;;;;;;;;;;;;;;5093483;28;19923;-68
2022/12/28 09:53:46;;;;;;;;;;;;;;;;;;5075154;28;19973;-68
2022/12/28 09:56:12;;;;;;;;;;;;;;;;;;5075863;28;19916;-68
2022/12/28 09:58:39;;;;;;;;;;;;;;;;;;5075924;28;20372;-67
2022/12/28 10:01:05;;;;;;;;;;;;;;;;;;5075444;28;20291;-67
2022/12/28 10:03:37;;;;;;;;;;;;;;;;;;5075853;28;19908;-67
2022/12/28 10:06:12;;;;;;;;;;;;;;;;;;5093413;28;20369;-68
2022/12/28 10:08:38;;;;;;;;;;;;;;;;;;5094122;28;19920;-67
2022/12/28 10:11:06;;;;;;;;;;;;;;;;;;5093645;28;19924;-67
2022/12/28 10:13:35;;;;;;;;;;;;;;;;;;5075507;28;19908;-67
2022/12/28 10:16:01;;;;;;;;;;;;;;;;;;5093288;28;20284;-67
2022/12/28 10:18:27;;;;;;;;;;;;;;;;;;5094283;28;19908;-67
2022/12/28 10:20:54;;;;;;;;;;;;;;;;;;5093355;28;20280;-67
2022/12/28 10:23:21;;;;;;;;;;;;;;;;;;5093978;28;19908;-67
2022/12/28 10:25:56;;;;;;;;;;;;;;;;;;5093573;28;19920;-68
2022/12/28 10:28:24;;;;;;;;;;;;;;;;;;5083348;28;19912;-68
2022/12/28 10:30:50;;;;;;;;;;;;;;;;;;5087489;28;20431;-68
2022/12/28 10:33:16;;;;;;;;;;;;;;;;;;5093322;28;19912;-68
2022/12/28 10:35:43;;;;;;;;;;;;;;;;;;5074741;28;19908;-68
2022/12/28 10:38:09;;;;;;;;;;;;;;;;;;5093087;28;19912;-67
2022/12/28 10:40:35;;;;;;;;;;;;;;;;;;5091603;28;19915;-68
2022/12/28 10:43:02;;;;;;;;;;;;;;;;;;5092438;28;19909;-69
2022/12/28 10:45:29;;;;;;;;;;;;;;;;;;5087651;28;19915;-68
2022/12/28 10:48:06;;;;;;;;;;;;;;;;;;5083276;28;19951;-68
2022/12/28 10:50:35;;;;;;;;;;;;;;;;;;5092270;28;19964;-68
2022/12/28 10:53:10;;;;;;;;;;;;;;;;;;5074333;28;19916;-68
2022/12/28 10:55:39;;;;;;;;;;;;;;;;;;5075812;28;20613;-68
2022/12/28 10:58:05;;;;;;;;;;;;;;;;;;5091252;28;19915;-68
2022/12/28 11:00:31;;;;;;;;;;;;;;;;;;5092761;28;19908;-67
2022/12/28 11:02:58;;;;;;;;;;;;;;;;;;5091622;28;19949;-68
2022/12/28 11:05:35;;;;;;;;;;;;;;;;;;5092849;28;19908;-68
2022/12/28 11:08:01;;;;;;;;;;;;;;;;;;5092519;28;19915;-68
2022/12/28 11:10:27;;;;;;;;;;;;;;;;;;5087120;28;19928;-68
2022/12/28 11:12:57;;;;;;;;;;;;;;;;;;5091699;28;19924;-68
2022/12/28 11:15:24;;;;;;;;;;;;;;;;;;5092437;28;20261;-68
2022/12/28 11:17:51;;;;;;;;;;;;;;;;;;5091454;28;20026;-68
2022/12/28 11:20:17;;;;;;;;;;;;;;;;;;5074264;28;19915;-69
2022/12/28 11:22:44;;;;;;;;;;;;;;;;;;5092598;28;19998;-68
2022/12/28 11:25:11;;;;;;;;;;;;;;;;;;5091253;28;20284;-68
2022/12/28 11:27:38;;;;;;;;;;;;;;;;;;5094455;28;19912;-68
2022/12/28 11:30:04;;;;;;;;;;;;;;;;;;5077640;28;19915;-69
2022/12/28 11:32:33;;;;;;;;;;;;;;;;;;5094445;28;19912;-68
2022/12/28 11:35:00;;;;;;;;;;;;;;;;;;5096161;28;19955;-70
2022/12/28 11:37:27;;;;;;;;;;;;;;;;;;5064168;28;19985;-68
2022/12/28 11:39:55;;;;;;;;;;;;;;;;;;5086387;28;20417;-70
2022/12/28 11:42:21;;;;;;;;;;;;;;;;;;5082964;28;19909;-69
2022/12/28 11:44:48;;;;;;;;;;;;;;;;;;5089023;28;20496;-67
2022/12/28 11:47:14;;;;;;;;;;;;;;;;;;5095391;28;19908;-68
2022/12/28 11:49:41;;;;;;;;;;;;;;;;;;5095127;28;19913;-70
2022/12/28 11:52:10;;;;;;;;;;;;;;;;;;5086722;28;19920;-70
2022/12/28 11:54:39;;;;;;;;;;;;;;;;;;5075267;28;20360;-70
2022/12/28 11:57:05;;;;;;;;;;;;;;;;;;5075415;28;19919;-70
2022/12/28 11:59:31;;;;;;;;;;;;;;;;;;5086051;28;20257;-69
2022/12/28 12:01:57;;;;;;;;;;;;;;;;;;5075994;28;20363;-70
2022/12/28 12:04:23;;;;;;;;;;;;;;;;;;5073430;28;19944;-71
2022/12/28 12:06:49;;;;;;;;;;;;;;;;;;5076002;28;19912;-70
2022/12/28 12:09:15;;;;;;;;;;;;;;;;;;5058008;28;19912;-69
2022/12/28 12:11:41;;;;;;;;;;;;;;;;;;5074932;28;19920;-69
2022/12/28 12:14:07;;;;;;;;;;;;;;;;;;5052712;28;19916;-67
2022/12/28 12:16:33;;;;;;;;;;;;;;;;;;5072868;28;19944;-71
2022/12/28 12:18:59;;;;;;;;;;;;;;;;;;5072111;28;19942;-72
2022/12/28 12:21:25;;;;;;;;;;;;;;;;;;5073014;28;20316;-70
2022/12/28 12:23:51;;;;;;;;;;;;;;;;;;5086639;28;19938;-70
2022/12/28 12:26:17;;;;;;;;;;;;;;;;;;5093261;28;19908;-68
2022/12/28 12:31:10;;;;;;;;;;;;;;;;;;5140761;27;20022;-68
2022/12/28 12:35:18;;;;;;;;;;;;;;;;;;5057984;27;2418831;-69
2022/12/28 12:37:44;;;;;;;;;;;;;;;;;;5132500;27;19946;-68
2022/12/28 12:40:10;;;;;;;;;;;;;;;;;;5142546;27;19995;-69
2022/12/28 12:45:14;;;;;;;;;;;;;;;;;;5109539;27;19918;-70
2022/12/28 12:47:40;;;;;;;;;;;;;;;;;;5110447;28;20007;-68
2022/12/28 12:50:09;;;;;;;;;;;;;;;;;;5114145;27;20012;-68
2022/12/28 12:52:37;;;;;;;;;;;;;;;;;;5089738;28;20395;-68
2022/12/28 12:57:06;;;;;;;;;;;;;;;;;;5090680;27;19913;-67
2022/12/28 12:59:32;;;;;;;;;;;;;;;;;;5091145;28;19989;-70
2022/12/28 13:03:13;;;;;;;;;;;;;;;;;;5108555;27;20350;-71
2022/12/28 13:05:39;;;;;;;;;;;;;;;;;;5107426;28;19912;-68
2022/12/28 13:08:05;;;;;;;;;;;;;;;;;;5107728;28;20520;-68
2022/12/28 13:13:59;;;;;;;;;;;;;;;;;;5108630;27;19920;-69
2022/12/28 13:16:25;;;;;;;;;;;;;;;;;;5109138;28;20334;-68
2022/12/28 13:20:16;;;;;;;;;;;;;;;;;;5111071;27;19916;-70
2022/12/28 13:22:42;;;;;;;;;;;;;;;;;;5110309;28;19998;-69
2022/12/28 13:25:08;;;;;;;;;;;;;;;;;;5111130;28;19953;-69
2022/12/28 13:27:34;;;;;;;;;;;;;;;;;;5111595;28;20368;-69
2022/12/28 13:30:37;;;;;;;;;;;;;;;;;;5111566;27;20269;-71
2022/12/28 13:33:03;;;;;;;;;;;;;;;;;;5111637;28;20007;-69
2022/12/28 13:35:29;;;;;;;;;;;;;;;;;;5105039;28;20319;-72
2022/12/28 13:37:55;;;;;;;;;;;;;;;;;;5095779;28;19967;-68
2022/12/28 13:42:18;;;;;;;;;;;;;;;;;;5137730;27;20279;-66
2022/12/28 13:46:33;;;;;;;;;;;;;;;;;;5111620;27;19922;-67
2022/12/28 13:48:59;;;;;;;;;;;;;;;;;;5108361;28;20011;-66
2022/12/28 13:51:25;;;;;;;;;;;;;;;;;;5110960;28;19955;-66
2022/12/28 13:53:51;;;;;;;;;;;;;;;;;;5110141;28;19908;-67
2022/12/28 13:56:17;;;;;;;;;;;;;;;;;;5110330;28;19908;-67
2022/12/28 13:58:46;;;;;;;;;;;;;;;;;;5107647;28;19958;-68
2022/12/28 14:01:12;;;;;;;;;;;;;;;;;;5109379;28;19954;-68
2022/12/28 14:03:38;;;;;;;;;;;;;;;;;;5109489;28;19908;-68
2022/12/28 14:06:05;;;;;;;;;;;;;;;;;;5106902;28;19916;-68
2022/12/28 14:08:31;;;;;;;;;;;;;;;;;;5107384;28;19950;-67
2022/12/28 14:10:57;;;;;;;;;;;;;;;;;;5109222;28;19908;-67
2022/12/28 14:13:23;;;;;;;;;;;;;;;;;;5108473;28;19935;-67
2022/12/28 14:15:49;;;;;;;;;;;;;;;;;;5108742;28;19915;-68
2022/12/28 14:18:15;;;;;;;;;;;;;;;;;;5109337;28;19909;-68
2022/12/28 14:25:29;;;;;;;;;;;;;;;;;;5109321;27;19922;-66
2022/12/28 14:27:55;;;;;;;;;;;;;;;;;;5109899;28;19914;-66
2022/12/28 14:32:21;;;;;;;;;;;;;;;;;;5089193;27;19916;-67
2022/12/28 14:34:47;;;;;;;;;;;;;;;;;;5088748;28;19934;-67
2022/12/28 14:37:13;;;;;;;;;;;;;;;;;;5088995;28;19908;-67
2022/12/28 14:42:21;;;;;;;;;;;;;;;;;;5088866;27;19923;-67
2022/12/28 14:45:18;;;;;;;;;;;;;;;;;;5109490;27;19916;-67
2022/12/28 14:47:45;;;;;;;;;;;;;;;;;;5110583;28;19918;-67
2022/12/28 14:52:25;;;;;;;;;;;;;;;;;;5112332;27;19922;-68
2022/12/28 14:54:50;;;;;;;;;;;;;;;;;;5109969;28;20006;-68
2022/12/28 14:57:17;;;;;;;;;;;;;;;;;;5111610;28;19912;-68
2022/12/28 14:59:42;;;;;;;;;;;;;;;;;;5111735;28;19908;-68
2022/12/28 15:02:22;;;;;;;;;;;;;;;;;;5111677;27;19912;-68
2022/12/28 15:04:48;;;;;;;;;;;;;;;;;;5111787;28;20019;-68
2022/12/28 15:07:14;;;;;;;;;;;;;;;;;;5111644;28;19995;-68
2022/12/28 15:09:40;;;;;;;;;;;;;;;;;;5111216;28;20003;-68
2022/12/28 15:12:06;;;;;;;;;;;;;;;;;;5111246;28;19912;-67
2022/12/28 15:14:32;;;;;;;;;;;;;;;;;;5106040;28;19912;-66
2022/12/28 15:16:58;;;;;;;;;;;;;;;;;;5109006;28;20364;-69
2022/12/28 15:19:24;;;;;;;;;;;;;;;;;;5109223;28;19908;-68
2022/12/28 15:21:50;;;;;;;;;;;;;;;;;;5109175;28;20377;-68
2022/12/28 15:24:16;;;;;;;;;;;;;;;;;;5108944;28;20398;-68
2022/12/28 15:26:42;;;;;;;;;;;;;;;;;;5109062;28;19908;-68
2022/12/28 15:29:08;;;;;;;;;;;;;;;;;;5109072;28;20352;-68
2022/12/28 15:31:33;;;;;;;;;;;;;;;;;;5109703;28;20479;-66
2022/12/28 15:33:59;;;;;;;;;;;;;;;;;;5109829;28;20394;-69
2022/12/28 15:36:25;;;;;;;;;;;;;;;;;;5111051;28;20360;-68
2022/12/28 15:38:51;;;;;;;;;;;;;;;;;;5110493;28;20303;-68
2022/12/28 15:44:02;;;;;;;;;;;;;;;;;;5110318;28;20387;-68
2022/12/28 15:46:28;;;;;;;;;;;;;;;;;;5109423;28;19908;-68
2022/12/28 15:48:53;;;;;;;;;;;;;;;;;;5111077;28;20007;-68
2022/12/28 15:51:19;;;;;;;;;;;;;;;;;;5109051;28;19912;-69
2022/12/28 15:53:45;;;;;;;;;;;;;;;;;;5110777;28;19953;-68
2022/12/28 15:56:11;;;;;;;;;;;;;;;;;;5109272;28;19908;-68
2022/12/28 15:58:37;;;;;;;;;;;;;;;;;;5108967;28;19915;-68
2022/12/28 16:01:03;;;;;;;;;;;;;;;;;;5110702;28;19920;-68
2022/12/28 16:03:29;;;;;;;;;;;;;;;;;;5109331;28;19916;-68
2022/12/28 16:05:55;;;;;;;;;;;;;;;;;;5108799;28;19923;-68
2022/12/28 16:08:21;;;;;;;;;;;;;;;;;;5110467;28;19915;-68
2022/12/28 16:10:47;;;;;;;;;;;;;;;;;;5109148;28;19908;-68
2022/12/28 16:13:13;;;;;;;;;;;;;;;;;;5098980;28;20360;-68
2022/12/28 16:15:39;;;;;;;;;;;;;;;;;;5097076;28;19915;-68
2022/12/28 16:18:05;;;;;;;;;;;;;;;;;;5096731;28;19908;-68
2022/12/28 16:20:31;;;;;;;;;;;;;;;;;;5096268;28;20018;-68
2022/12/28 16:22:57;;;;;;;;;;;;;;;;;;5096803;28;19934;-68
2022/12/28 16:25:22;;;;;;;;;;;;;;;;;;5096583;28;19908;-68
2022/12/28 16:27:48;;;;;;;;;;;;;;;;;;5096170;28;20411;-68
2022/12/28 16:30:14;;;;;;;;;;;;;;;;;;5096497;28;20417;-68
2022/12/28 16:32:45;;;;;;;;;;;;;;;;;;5096094;28;20395;-68
2022/12/28 16:35:12;;;;;;;;;;;;;;;;;;5096061;28;19908;-68
2022/12/28 16:37:38;;;;;;;;;;;;;;;;;;5096182;28;20003;-68
2022/12/28 16:40:04;;;;;;;;;;;;;;;;;;5094492;28;19915;-68
2022/12/28 16:42:31;;;;;;;;;;;;;;;;;;5096448;28;19916;-68
2022/12/28 16:44:56;;;;;;;;;;;;;;;;;;5094868;28;19991;-67
2022/12/28 16:47:22;;;;;;;;;;;;;;;;;;5095706;28;19951;-66
2022/12/28 16:49:48;;;;;;;;;;;;;;;;;;5096151;28;19908;-67
2022/12/28 16:52:14;;;;;;;;;;;;;;;;;;5096024;28;19908;-67
2022/12/28 16:54:40;;;;;;;;;;;;;;;;;;5095520;28;19967;-68
2022/12/28 16:57:09;;;;;;;;;;;;;;;;;;5095892;28;19915;-68
2022/12/28 16:59:35;;;;;;;;;;;;;;;;;;5096003;28;19915;-68
2022/12/28 17:02:01;;;;;;;;;;;;;;;;;;5093856;28;19920;-68
2022/12/28 17:04:27;;;;;;;;;;;;;;;;;;5095754;28;20349;-68
2022/12/28 17:06:53;;;;;;;;;;;;;;;;;;5095617;28;19908;-68
2022/12/28 17:09:19;;;;;;;;;;;;;;;;;;5095375;28;19943;-68
2022/12/28 17:11:45;;;;;;;;;;;;;;;;;;5095630;28;20004;-68
2022/12/28 17:14:11;;;;;;;;;;;;;;;;;;5095589;28;19912;-67
2022/12/28 17:16:37;;;;;;;;;;;;;;;;;;5095210;28;19908;-69
2022/12/28 17:19:03;;;;;;;;;;;;;;;;;;5095453;28;20003;-68
2022/12/28 17:21:30;;;;;;;;;;;;;;;;;;5095475;28;19950;-68
2022/12/28 17:23:56;;;;;;;;;;;;;;;;;;5094025;28;19962;-68
2022/12/28 17:26:21;;;;;;;;;;;;;;;;;;5094080;28;19908;-68
2022/12/28 17:28:47;;;;;;;;;;;;;;;;;;5095398;28;19908;-69
2022/12/28 17:31:13;;;;;;;;;;;;;;;;;;5094956;28;19915;-69
2022/12/28 17:33:39;;;;;;;;;;;;;;;;;;5095309;28;19919;-69
2022/12/28 17:36:05;;;;;;;;;;;;;;;;;;5093935;28;19909;-69
2022/12/28 17:38:31;;;;;;;;;;;;;;;;;;5094806;28;20004;-69
2022/12/28 17:40:57;;;;;;;;;;;;;;;;;;5095081;28;19916;-69